createdAt,value
2018-12-24T00:02:38.066Z,65.69
2018-12-24T00:06:53.205Z,65.52
2018-12-24T00:10:59.041Z,65.48
2018-12-24T00:15:06.647Z,65.56
2018-12-24T00:19:12.637Z,65.21
2018-12-24T00:23:18.582Z,65.15
2018-12-24T00:27:24.560Z,65.04
2018-12-24T00:31:30.459Z,65.42
2018-12-24T00:37:03.218Z,65.88
2018-12-24T00:41:20.773Z,65.99
2018-12-24T00:45:57.693Z,66.06
2018-12-24T00:50:15.970Z,65.67
2018-12-24T00:55:00.323Z,65.91
2018-12-24T00:59:18.058Z,66.51
2018-12-24T01:04:02.529Z,66.69
2018-12-24T01:08:18.429Z,66.68
2018-12-24T01:17:11.547Z,66.77
2018-12-24T01:21:27.576Z,66.86
2018-12-24T01:25:52.615Z,67.01
2018-12-24T01:30:11.276Z,66.93
2018-12-24T01:34:55.630Z,66.85
2018-12-24T01:39:13.305Z,67.00
2018-12-24T01:43:38.384Z,67.01
2018-12-24T01:47:56.652Z,67.19
2018-12-24T01:52:14.372Z,67.09
2018-12-24T02:01:15.906Z,66.48
2018-12-24T02:05:33.499Z,66.63
2018-12-24T02:09:58.544Z,66.29
2018-12-24T02:14:16.452Z,66.35
2018-12-24T02:18:41.513Z,66.41
2018-12-24T02:22:59.594Z,65.79
2018-12-24T02:27:24.751Z,65.29
2018-12-24T02:31:48.561Z,62.42
2018-12-24T02:36:13.656Z,63.00
2018-12-24T02:40:50.438Z,62.08
2018-12-24T02:45:08.664Z,61.61
2018-12-24T02:49:48.645Z,61.49
2018-12-24T02:54:06.494Z,61.59
2018-12-24T02:58:50.880Z,61.27
2018-12-24T03:03:08.948Z,60.36
2018-12-24T03:07:34.000Z,61.58
2018-12-24T03:11:52.322Z,60.95
2018-12-24T03:16:08.262Z,60.81
2018-12-24T03:25:09.739Z,60.69
2018-12-24T03:29:49.291Z,60.93
2018-12-24T03:34:14.335Z,60.40
2018-12-24T03:38:51.579Z,61.00
2018-12-24T03:43:16.663Z,60.36
2018-12-24T03:47:53.598Z,59.89
2018-12-24T03:52:18.668Z,59.54
2018-12-24T03:56:55.917Z,59.44
2018-12-24T04:05:57.192Z,60.58
2018-12-24T04:10:15.038Z,60.28
2018-12-24T04:14:40.081Z,61.08
2018-12-24T04:18:58.174Z,60.79
2018-12-24T04:23:23.214Z,59.51
2018-12-24T04:28:00.591Z,59.43
2018-12-24T04:33:04.195Z,60.86
2018-12-24T04:37:22.438Z,60.54
2018-12-24T04:41:59.679Z,59.54
2018-12-24T04:46:17.197Z,59.47
2018-12-24T04:50:34.708Z,59.66
2018-12-24T04:54:59.753Z,58.52
2018-12-24T04:59:17.509Z,60.96
2018-12-24T05:04:01.879Z,60.36
2018-12-24T05:08:19.847Z,57.70
2018-12-24T05:12:56.608Z,58.23
2018-12-24T05:17:02.311Z,60.25
2018-12-24T05:21:08.018Z,59.99
2018-12-24T05:25:13.730Z,60.53
2018-12-24T05:29:19.391Z,58.25
2018-12-24T05:33:26.059Z,58.91
2018-12-24T05:37:31.759Z,58.42
2018-12-24T05:41:37.463Z,58.96
2018-12-24T05:45:43.160Z,59.15
2018-12-24T05:49:51.799Z,56.62
2018-12-24T05:53:57.600Z,58.46
2018-12-24T05:58:03.347Z,59.20
2018-12-24T06:02:09.055Z,57.31
2018-12-24T06:06:14.760Z,57.54
2018-12-24T06:10:20.447Z,58.71
2018-12-24T06:14:26.141Z,57.61
2018-12-24T06:18:46.762Z,56.11
2018-12-24T06:22:52.468Z,58.66
2018-12-24T06:26:58.190Z,59.23
2018-12-24T06:31:03.950Z,58.21
2018-12-24T06:35:09.661Z,57.11
2018-12-24T06:39:15.527Z,58.07
2018-12-24T06:43:21.229Z,56.65
2018-12-24T07:08:51.116Z,57.37
2018-12-24T07:18:52.355Z,57.28
2018-12-24T07:22:58.051Z,58.72
2018-12-24T07:27:03.763Z,56.66
2018-12-24T07:31:09.458Z,57.53
2018-12-24T07:35:15.184Z,58.94
2018-12-24T07:39:51.013Z,57.14
2018-12-24T07:43:56.712Z,55.65
2018-12-24T07:48:02.416Z,56.67
2018-12-24T07:52:08.125Z,57.37
2018-12-24T07:56:13.827Z,54.91
2018-12-24T08:00:19.516Z,55.24
2018-12-24T08:04:25.215Z,56.28
2018-12-24T08:08:30.917Z,54.75
2018-12-24T08:12:51.787Z,56.81
2018-12-24T08:16:57.498Z,55.23
2018-12-24T08:21:03.225Z,55.42
2018-12-24T08:25:08.931Z,53.94
2018-12-24T08:33:53.008Z,55.71
2018-12-24T08:37:58.807Z,53.92
2018-12-24T08:42:49.568Z,54.84
2018-12-24T08:46:55.287Z,54.55
2018-12-24T08:51:49.087Z,54.69
2018-12-24T08:55:54.821Z,56.59
2018-12-24T09:00:48.703Z,54.48
2018-12-24T09:04:54.414Z,55.09
2018-12-24T09:09:51.277Z,55.44
2018-12-24T09:13:56.975Z,56.01
2018-12-24T09:18:02.668Z,54.80
2018-12-24T09:22:08.374Z,56.65
2018-12-24T09:26:14.087Z,57.25
2018-12-24T09:30:50.007Z,54.38
2018-12-24T09:34:55.674Z,57.43
2018-12-24T09:39:49.181Z,56.27
2018-12-24T09:43:54.891Z,56.05
2018-12-24T09:48:00.602Z,53.78
2018-12-24T09:52:06.309Z,55.07
2018-12-24T09:56:12.563Z,55.47
2018-12-24T10:00:51.423Z,54.63
2018-12-24T10:04:57.130Z,55.29
2018-12-24T10:09:51.007Z,54.73
2018-12-24T10:13:56.717Z,56.56
2018-12-24T10:18:02.419Z,56.45
2018-12-24T10:22:08.110Z,54.85
2018-12-24T10:26:13.811Z,55.03
2018-12-24T10:30:49.601Z,52.18
2018-12-24T10:34:55.302Z,54.00
2018-12-24T10:43:50.848Z,52.86
2018-12-24T10:47:56.538Z,53.89
2018-12-24T10:52:02.236Z,51.46
2018-12-24T10:56:07.939Z,49.96
2018-12-24T11:00:13.661Z,50.40
2018-12-24T11:38:51.214Z,54.51
2018-12-24T12:05:51.351Z,52.81
2018-12-24T12:15:52.694Z,51.70
2018-12-24T12:20:52.659Z,54.35
2018-12-24T12:24:56.651Z,54.89
2018-12-24T12:29:50.525Z,56.49
2018-12-24T12:33:56.201Z,57.51
2018-12-24T12:38:49.874Z,54.74
2018-12-24T12:42:55.585Z,54.41
2018-12-24T12:47:49.020Z,52.31
2018-12-24T12:51:54.714Z,54.95
2018-12-24T13:00:53.388Z,55.51
2018-12-24T13:04:59.071Z,52.41
2018-12-24T13:09:49.488Z,53.08
2018-12-24T13:13:55.260Z,51.57
2018-12-24T13:18:00.959Z,50.87
2018-12-24T13:22:06.655Z,51.51
2018-12-24T13:26:12.353Z,50.34
2018-12-24T13:30:18.069Z,51.23
2018-12-24T13:34:23.774Z,52.28
2018-12-24T13:38:29.475Z,55.57
2018-12-24T13:42:35.168Z,53.53
2018-12-24T13:46:40.856Z,53.71
2018-12-24T13:50:46.547Z,52.54
2018-12-24T13:54:52.246Z,51.64
2018-12-24T13:58:57.961Z,52.34
2018-12-24T14:03:03.670Z,51.78
2018-12-24T14:07:47.834Z,52.11
2018-12-24T14:11:53.525Z,51.95
2018-12-24T14:15:59.225Z,51.80
2018-12-24T14:20:06.148Z,53.41
2018-12-24T14:24:50.685Z,52.79
2018-12-24T14:28:56.385Z,53.21
2018-12-24T14:33:02.111Z,53.36
2018-12-24T14:37:07.800Z,51.90
2018-12-24T14:45:51.882Z,51.14
2018-12-24T14:49:57.568Z,51.42
2018-12-24T14:54:03.277Z,52.01
2018-12-24T14:58:08.956Z,51.83
2018-12-24T15:02:14.722Z,51.80
2018-12-24T15:06:20.410Z,52.17
2018-12-24T15:10:26.111Z,53.88
2018-12-24T15:14:31.981Z,56.11
2018-12-24T15:24:52.542Z,57.35
2018-12-24T15:29:49.412Z,57.61
2018-12-24T15:33:55.152Z,53.59
2018-12-24T15:38:48.943Z,51.85
2018-12-24T15:42:54.707Z,51.41
2018-12-24T15:51:50.426Z,55.42
2018-12-24T15:56:46.723Z,51.62
2018-12-24T16:00:52.418Z,55.35
2018-12-24T16:05:48.983Z,54.83
2018-12-24T16:09:54.667Z,53.94
2018-12-24T16:14:48.628Z,56.73
2018-12-24T16:18:54.291Z,54.91
2018-12-24T16:23:00.015Z,55.75
2018-12-24T16:27:50.409Z,55.00
2018-12-24T16:31:56.118Z,55.22
2018-12-24T16:36:01.829Z,56.26
2018-12-24T16:40:07.524Z,54.54
2018-12-24T16:44:49.383Z,53.51
2018-12-24T16:48:55.078Z,53.28
2018-12-24T16:53:00.764Z,54.08
2018-12-24T16:57:06.454Z,54.36
2018-12-24T17:01:12.143Z,54.84
2018-12-24T17:05:17.847Z,54.50
2018-12-24T17:09:23.921Z,54.83
2018-12-24T17:13:49.904Z,59.24
2018-12-24T17:17:55.627Z,58.85
2018-12-24T17:22:01.393Z,58.53
2018-12-24T17:26:07.063Z,57.58
2018-12-24T17:30:13.768Z,57.14
2018-12-24T17:34:49.224Z,58.43
2018-12-24T17:38:55.020Z,58.14
2018-12-24T17:43:00.718Z,56.17
2018-12-24T17:47:06.405Z,56.06
2018-12-24T17:51:12.110Z,58.22
2018-12-24T17:55:17.857Z,56.97
2018-12-24T17:59:23.569Z,52.24
2018-12-24T18:03:29.236Z,56.52
2018-12-24T18:07:34.948Z,53.99
2018-12-24T18:11:40.652Z,54.83
2018-12-24T18:15:46.343Z,55.31
2018-12-24T18:19:52.037Z,56.82
2018-12-24T18:23:57.743Z,57.31
2018-12-24T18:28:03.420Z,56.42
2018-12-24T18:32:09.105Z,54.12
2018-12-24T18:36:14.809Z,56.23
2018-12-24T18:40:20.504Z,54.66
2018-12-24T18:44:26.175Z,51.95
2018-12-24T18:48:31.861Z,50.64
2018-12-24T18:52:37.687Z,52.37
2018-12-24T18:56:43.378Z,51.33
2018-12-24T19:00:49.081Z,51.13
2018-12-24T19:04:55.559Z,51.22
2018-12-24T19:09:01.251Z,52.70
2018-12-24T19:13:08.795Z,50.71
2018-12-24T19:17:14.485Z,51.20
2018-12-24T19:21:20.149Z,50.79
2018-12-24T19:25:25.857Z,50.65
2018-12-24T19:29:31.546Z,50.77
2018-12-24T19:50:51.343Z,51.43
2018-12-24T19:55:50.618Z,51.95
2018-12-24T19:59:56.300Z,54.05
2018-12-24T20:04:02.022Z,53.58
2018-12-24T20:08:49.480Z,54.97
2018-12-24T20:12:56.236Z,50.76
2018-12-24T20:17:02.025Z,50.31
2018-12-24T20:21:07.714Z,49.86
2018-12-24T20:25:13.397Z,50.05
2018-12-24T20:29:52.009Z,49.36
2018-12-24T20:33:57.688Z,49.43
2018-12-24T20:38:03.406Z,51.27
2018-12-24T20:42:09.090Z,50.94
2018-12-24T20:46:14.777Z,53.47
2018-12-24T20:50:50.321Z,51.28
2018-12-24T20:54:55.988Z,55.41
2018-12-24T20:59:01.744Z,54.51
2018-12-24T21:03:07.438Z,52.53
2018-12-24T21:07:13.138Z,54.89
2018-12-24T21:11:51.977Z,51.71
2018-12-24T21:15:57.669Z,53.07
2018-12-24T21:24:50.725Z,51.06
2018-12-24T21:28:56.410Z,57.65
2018-12-24T21:33:02.116Z,50.42
2018-12-24T21:37:07.812Z,54.29
2018-12-24T21:41:49.236Z,54.94
2018-12-24T21:45:54.996Z,54.36
2018-12-24T21:50:00.695Z,56.67
2018-12-24T21:54:06.377Z,55.24
2018-12-24T21:58:12.059Z,54.66
2018-12-24T22:02:50.509Z,57.04
2018-12-24T22:06:56.211Z,56.92
2018-12-24T22:11:01.971Z,54.72
2018-12-24T22:15:07.657Z,56.69
2018-12-24T22:19:13.344Z,51.21
2018-12-24T22:23:19.076Z,49.70
2018-12-24T22:27:24.761Z,59.37
2018-12-24T22:31:30.447Z,56.29
2018-12-24T22:35:51.438Z,53.65
2018-12-24T22:39:57.154Z,48.48
2018-12-24T22:44:02.882Z,48.92
2018-12-24T22:48:08.556Z,53.18
2018-12-24T22:52:14.265Z,50.44
2018-12-24T22:56:19.960Z,49.61
2018-12-24T23:00:27.337Z,49.93
2018-12-24T23:04:51.002Z,50.14
2018-12-24T23:08:57.190Z,54.54
2018-12-24T23:13:02.832Z,53.36
2018-12-24T23:17:08.518Z,53.50
2018-12-24T23:21:14.232Z,50.31
2018-12-24T23:25:19.994Z,51.70
2018-12-24T23:29:49.781Z,55.55
2018-12-24T23:33:55.519Z,51.74
2018-12-24T23:38:01.198Z,50.57
2018-12-24T23:42:06.882Z,50.49
2018-12-24T23:46:12.654Z,50.85
2018-12-24T23:51:48.431Z,54.66
